Time;durP1;ratioP1;P1;durP2;ratioP2;P2;SDS_P1;SDS_P2;PMS_P1;PMS_P2;Temp;Humidity;BMP_temperature;BMP_pressure;BME280_temperature;BME280_humidity;BME280_pressure;Samples;Min_cycle;Max_cycle;Signal;HPM_P1;HPM_P2
2022/08/12 00:44:09;;;;;;;5.70;2.00;;;;;;;18.83;52.60;96682.53;5045187;28;20056;-66
2022/08/12 00:46:46;;;;;;;4.75;2.03;;;;;;;18.79;52.79;96687.34;5051642;28;20067;-65
2022/08/12 00:49:12;;;;;;;4.93;1.85;;;;;;;18.64;53.45;96690.34;5042787;28;20511;-65
2022/08/12 00:54:23;;;;;;;3.25;1.80;;;;;;;18.62;53.40;96687.22;5051610;28;20478;-66
2022/08/12 00:56:49;;;;;;;6.72;1.88;;;;;;;18.53;53.82;96695.28;5051182;28;20037;-66
2022/08/12 00:59:16;;;;;;;4.50;2.22;;;;;;;18.58;53.62;96680.13;5034163;28;20024;-66
2022/08/12 01:01:45;;;;;;;4.57;1.75;;;;;;;18.52;53.78;96697.25;5051275;28;20112;-66
2022/08/12 01:12:28;;;;;;;3.50;2.03;;;;;;;18.41;54.38;96682.00;5036848;28;20071;-67
2022/08/12 01:14:53;;;;;;;3.33;2.15;;;;;;;18.37;54.58;96678.50;5050101;28;20025;-67
2022/08/12 01:17:21;;;;;;;4.32;1.70;;;;;;;18.39;54.32;96684.41;5050770;28;20047;-66
2022/08/12 01:19:51;;;;;;;8.00;2.50;;;;;;;18.36;54.42;96680.47;5048954;28;20063;-66
2022/08/12 01:22:29;;;;;;;4.05;1.90;;;;;;;18.36;54.25;96668.59;5045156;28;20056;-66
2022/08/12 01:25:11;;;;;;;2.50;1.80;;;;;;;18.33;54.29;96670.22;5033266;28;20045;-66
2022/08/12 01:27:39;;;;;;;2.65;1.73;;;;;;;18.27;54.81;96671.88;5050296;28;20029;-67
2022/08/12 01:30:07;;;;;;;7.30;2.10;;;;;;;18.12;55.26;96680.41;5050128;28;20053;-67
2022/08/12 01:32:37;;;;;;;4.15;2.20;;;;;;;18.11;55.46;96678.03;5050864;28;20067;-66
2022/08/12 01:35:12;;;;;;;6.47;1.88;;;;;;;18.14;55.05;96668.91;5050999;28;20035;-66
2022/08/12 01:37:51;;;;;;;3.22;2.00;;;;;;;18.13;54.97;96665.34;5050568;28;20033;-66
2022/08/12 01:40:18;;;;;;;5.93;1.88;;;;;;;18.11;54.87;96664.19;5051044;28;20025;-66
2022/08/12 01:42:47;;;;;;;4.75;1.83;;;;;;;18.09;55.27;96670.16;5049416;28;20037;-68
2022/08/12 01:45:14;;;;;;;2.47;1.80;;;;;;;18.12;54.98;96665.78;5044442;28;20029;-67
2022/08/12 01:48:00;;;;;;;5.55;2.10;;;;;;;18.08;55.32;96674.13;5050833;28;20025;-66
2022/08/12 01:50:40;;;;;;;3.33;2.00;;;;;;;18.06;55.24;96675.75;5032042;28;20037;-66
2022/08/12 01:53:10;;;;;;;7.03;2.20;;;;;;;18.12;55.06;96666.53;5050657;28;20555;-66
2022/08/12 01:55:39;;;;;;;4.80;2.20;;;;;;;18.02;55.56;96670.25;5050374;28;20033;-66
2022/08/12 01:59:45;;;;;;;3.20;2.03;;;;;;;17.91;55.77;96675.94;5045947;28;20109;-66
2022/08/12 02:01:20;;;;;;;5.47;1.77;;;;;;;17.96;55.58;96669.94;5043672;28;20033;-66
2022/08/12 02:13:20;;;;;;;5.10;2.15;;;;;;;17.68;56.75;96664.72;5050616;28;20090;-67
2022/08/12 02:16:10;;;;;;;4.22;2.45;;;;;;;17.61;57.29;96671.16;5011682;28;20041;-67
2022/08/12 02:19:12;;;;;;;3.65;2.20;;;;;;;17.61;57.29;96662.03;5054719;28;20050;-68
2022/08/12 02:21:40;;;;;;;5.30;2.10;;;;;;;17.65;56.86;96655.25;5052835;28;20044;-67
2022/08/12 02:24:11;;;;;;;3.28;2.20;;;;;;;17.60;57.43;96652.19;5036523;28;20090;-68
2022/08/12 02:26:39;;;;;;;4.03;2.13;;;;;;;17.55;57.33;96656.94;5053945;28;20102;-66
2022/08/12 02:29:06;;;;;;;8.05;2.55;;;;;;;17.50;57.57;96651.09;5054363;28;20036;-67
2022/08/12 02:31:32;;;;;;;4.60;2.13;;;;;;;17.44;57.41;96639.69;5054278;28;20047;-66
2022/08/12 02:33:58;;;;;;;4.95;2.20;;;;;;;17.44;57.56;96642.44;5054382;28;20087;-67
2022/08/12 02:36:26;;;;;;;3.65;1.95;;;;;;;17.50;57.47;96643.59;5045200;28;20059;-67
2022/08/12 02:38:52;;;;;;;3.22;1.90;;;;;;;17.50;57.24;96646.34;5054250;28;20032;-67
2022/08/12 02:41:20;;;;;;;3.75;2.30;;;;;;;17.34;58.36;96635.84;5056608;28;20025;-66
2022/08/12 02:43:50;;;;;;;3.20;2.40;;;;;;;17.26;58.47;96650.19;5056502;28;20043;-66
2022/08/12 02:46:22;;;;;;;6.55;2.15;;;;;;;17.20;58.78;96636.78;5053693;28;20609;-66
2022/08/12 02:48:56;;;;;;;4.47;2.00;;;;;;;17.18;58.96;96632.88;5052245;28;20041;-66
2022/08/12 02:51:28;;;;;;;6.25;2.28;;;;;;;17.14;59.19;96629.34;5053733;28;20075;-66
2022/08/12 02:53:56;;;;;;;4.07;2.35;;;;;;;17.13;59.25;96641.63;5054050;28;20025;-67
2022/08/12 02:56:22;;;;;;;7.13;2.30;;;;;;;17.00;59.73;96639.38;5053543;28;20098;-67
2022/08/12 02:58:48;;;;;;;4.90;2.22;;;;;;;16.99;59.62;96637.00;5053887;28;20041;-67
2022/08/12 03:01:15;;;;;;;5.30;2.53;;;;;;;16.92;60.05;96635.09;5053522;28;20044;-66
2022/08/12 03:03:41;;;;;;;4.78;2.00;;;;;;;16.99;59.96;96642.53;5032511;28;20513;-67
2022/08/12 03:06:12;;;;;;;5.22;2.28;;;;;;;16.84;60.50;96633.59;5053336;28;20052;-66
2022/08/12 03:08:42;;;;;;;3.45;2.25;;;;;;;16.74;61.11;96637.22;5053668;28;20037;-66
2022/08/12 03:11:30;;;;;;;5.07;2.25;;;;;;;16.72;61.39;96642.38;5052558;28;20029;-66
2022/08/12 03:14:00;;;;;;;4.40;2.40;;;;;;;16.57;62.05;96639.72;5053557;28;20031;-68
2022/08/12 03:16:29;;;;;;;3.85;2.40;;;;;;;16.60;61.80;96636.16;5052633;28;20027;-68
2022/08/12 03:18:55;;;;;;;12.10;2.33;;;;;;;16.47;62.57;96640.59;5044809;28;20392;-67
2022/08/12 03:21:23;;;;;;;5.20;2.08;;;;;;;16.39;63.00;96637.09;5053051;28;20420;-68
2022/08/12 03:23:52;;;;;;;5.65;2.42;;;;;;;16.34;62.97;96634.78;5053250;28;20116;-68
2022/08/12 03:26:23;;;;;;;7.13;2.55;;;;;;;16.30;63.71;96636.00;5050406;28;20056;-68
2022/08/12 03:28:49;;;;;;;9.15;2.47;;;;;;;16.32;63.31;96639.16;5053040;28;20033;-67
2022/08/12 03:31:16;;;;;;;3.30;2.17;;;;;;;16.23;63.71;96634.84;5053264;28;20053;-67
2022/08/12 03:33:43;;;;;;;9.63;2.60;;;;;;;16.11;64.39;96643.59;5043941;28;20044;-66
2022/08/12 03:36:10;;;;;;;5.50;2.45;;;;;;;16.09;64.55;96643.22;5052686;28;20029;-66
2022/08/12 03:38:39;;;;;;;3.60;2.33;;;;;;;16.17;64.26;96641.19;5053047;28;20033;-67
2022/08/12 04:01:19;;;;;;;3.00;2.13;;;;;;;16.01;65.35;96661.06;5053187;28;20029;-67
2022/08/12 04:03:51;;;;;;;7.07;2.63;;;;;;;16.04;65.13;96647.22;5038877;28;20534;-67
2022/08/12 04:06:28;;;;;;;5.03;2.40;;;;;;;16.16;64.34;96645.94;5054418;28;20061;-67
2022/08/12 04:08:56;;;;;;;3.88;2.45;;;;;;;15.99;65.32;96650.41;5051341;28;20056;-66
2022/08/12 04:14:18;;;;;;;6.07;2.80;;;;;;;15.96;65.56;96650.44;5052286;28;20064;-66
2022/08/12 04:16:46;;;;;;;8.35;2.40;;;;;;;15.94;65.76;96650.06;5052044;28;20036;-67
2022/08/12 04:19:12;;;;;;;5.78;2.70;;;;;;;15.89;66.28;96642.97;5052127;28;20464;-67
2022/08/12 04:21:38;;;;;;;6.10;2.70;;;;;;;15.85;66.30;96639.44;5033418;28;20041;-67
2022/08/12 04:24:04;;;;;;;7.63;2.85;;;;;;;15.84;66.50;96638.63;5044069;28;20078;-67
2022/08/12 04:26:30;;;;;;;4.78;2.70;;;;;;;15.83;66.48;96648.13;5052223;28;20028;-67
2022/08/12 04:28:57;;;;;;;4.68;2.42;;;;;;;15.77;66.98;96649.75;5051888;28;20398;-66
2022/08/12 04:31:39;;;;;;;8.18;2.70;;;;;;;15.81;66.81;96647.75;5051854;28;20033;-67
2022/08/12 04:34:06;;;;;;;6.05;2.50;;;;;;;15.86;66.57;96654.81;5053015;28;20032;-67
2022/08/12 04:36:32;;;;;;;4.28;2.42;;;;;;;15.92;66.44;96657.94;5050761;28;20033;-67
2022/08/12 04:38:58;;;;;;;7.10;3.20;;;;;;;15.84;66.99;96660.72;5043526;28;20028;-68
2022/08/12 04:41:26;;;;;;;5.70;2.83;;;;;;;15.77;67.41;96655.25;5050067;28;20037;-68
2022/08/12 04:43:52;;;;;;;6.25;2.40;;;;;;;15.78;67.34;96654.06;5051573;28;20037;-67
2022/08/12 04:46:18;;;;;;;4.90;2.50;;;;;;;15.78;67.77;96658.81;5051262;28;20547;-67
2022/08/12 04:48:45;;;;;;;7.55;2.90;;;;;;;15.76;67.88;96650.91;5066889;28;20037;-67
2022/08/12 04:51:11;;;;;;;3.97;2.55;;;;;;;15.70;68.46;96649.75;5050945;28;20040;-67
2022/08/12 04:53:36;;;;;;;5.15;2.50;;;;;;;15.62;68.86;96653.72;5051357;28;20033;-66
2022/08/12 04:56:03;;;;;;;2.60;2.13;;;;;;;15.65;69.21;96650.16;5050656;28;20078;-67
2022/08/12 04:58:28;;;;;;;7.32;2.95;;;;;;;15.66;68.83;96652.53;5042817;28;20039;-66
2022/08/12 05:00:54;;;;;;;5.03;3.00;;;;;;;15.64;69.52;96645.81;5048550;28;20029;-66
2022/08/12 05:03:19;;;;;;;6.15;2.60;;;;;;;15.68;69.19;96654.84;5045732;28;20035;-66
2022/08/12 05:05:45;;;;;;;6.05;2.78;;;;;;;15.76;69.05;96641.84;5049136;28;20043;-66
2022/08/12 05:08:14;;;;;;;3.85;2.47;;;;;;;15.78;69.01;96631.97;5044408;28;20120;-65
2022/08/12 05:10:41;;;;;;;5.38;2.80;;;;;;;15.80;69.52;96642.63;5051325;28;20040;-66
2022/08/12 05:13:09;;;;;;;5.88;2.95;;;;;;;16.11;67.93;96637.31;5051135;28;20028;-66
2022/08/12 05:15:39;;;;;;;6.68;2.65;;;;;;;16.66;65.76;96639.28;5050700;28;20032;-67
2022/08/12 05:18:04;;;;;;;5.82;2.47;;;;;;;16.82;65.24;96644.25;5050236;28;20406;-66
2022/08/12 05:20:30;;;;;;;6.00;2.60;;;;;;;16.81;65.25;96651.75;5049455;28;20031;-66
2022/08/12 05:23:10;;;;;;;6.85;2.63;;;;;;;16.76;65.04;96649.47;5051188;28;20481;-66
2022/08/12 05:25:36;;;;;;;6.53;2.45;;;;;;;17.04;64.65;96653.16;5051172;28;20025;-67
2022/08/12 05:28:04;;;;;;;2.88;2.15;;;;;;;17.28;63.75;96662.41;5051307;28;20500;-66
2022/08/12 05:30:31;;;;;;;4.22;2.15;;;;;;;17.29;63.26;96657.66;5049971;28;20028;-66
2022/08/12 05:32:57;;;;;;;4.38;2.50;;;;;;;16.91;64.94;96658.44;5039270;28;20041;-68
2022/08/12 05:35:23;;;;;;;6.30;2.70;;;;;;;17.26;64.33;96672.31;5044743;28;20103;-67
2022/08/12 05:38:54;;;;;;;3.92;2.60;;;;;;;17.08;64.35;96673.28;5042093;28;20030;-66
2022/08/12 05:40:35;;;;;;;5.82;2.60;;;;;;;17.17;63.64;96668.03;5050589;28;20425;-68
2022/08/12 05:43:00;;;;;;;6.30;3.05;;;;;;;17.59;62.70;96673.53;5050135;28;20017;-69
2022/08/12 05:45:26;;;;;;;4.75;2.90;;;;;;;17.77;62.08;96678.84;5053785;28;20025;-67
2022/08/12 05:47:51;;;;;;;8.25;2.45;;;;;;;17.61;62.72;96670.34;5053699;28;20379;-67
2022/08/12 05:50:16;;;;;;;6.28;2.50;;;;;;;17.68;62.29;96673.84;5054099;28;20028;-67
2022/08/12 05:52:42;;;;;;;5.00;2.70;;;;;;;17.60;62.86;96677.09;5035059;28;20064;-65
2022/08/12 05:55:09;;;;;;;7.50;2.80;;;;;;;17.68;62.29;96668.28;5055561;28;20466;-65
2022/08/12 05:57:34;;;;;;;4.53;3.15;;;;;;;18.16;61.45;96677.59;5046176;28;20030;-65
2022/08/12 05:59:59;;;;;;;10.32;2.53;;;;;;;18.07;60.87;96680.88;5055182;28;20036;-66
2022/08/12 06:02:25;;;;;;;4.35;2.47;;;;;;;18.67;59.41;96685.94;5056277;28;20084;-66
2022/08/12 06:04:52;;;;;;;4.00;2.25;;;;;;;18.62;59.65;96680.88;5053970;28;20801;-65
2022/08/12 06:07:18;;;;;;;5.47;2.72;;;;;;;18.39;60.66;96676.09;5055723;28;20095;-66
2022/08/12 06:09:43;;;;;;;4.97;2.58;;;;;;;18.57;59.11;96670.28;5057360;28;20385;-66
2022/08/12 06:12:08;;;;;;;4.38;2.50;;;;;;;19.28;57.29;96671.84;5056105;28;20044;-65
2022/08/12 06:14:35;;;;;;;5.07;2.38;;;;;;;19.36;57.64;96671.72;5055936;28;20028;-66
2022/08/12 06:17:01;;;;;;;4.13;2.38;;;;;;;19.10;57.46;96679.69;5055946;28;20036;-65
2022/08/12 06:19:28;;;;;;;5.15;2.30;;;;;;;19.06;58.74;96682.53;5047947;28;20036;-65
2022/08/12 06:21:53;;;;;;;2.78;2.10;;;;;;;19.42;57.56;96684.66;5044061;28;20045;-64
2022/08/12 06:24:23;;;;;;;6.25;2.72;;;;;;;19.86;55.19;96687.41;5046472;28;20032;-64
2022/08/12 06:26:49;;;;;;;3.67;2.45;;;;;;;19.97;55.57;96690.78;5054893;28;20036;-65
2022/08/12 06:29:18;;;;;;;6.43;2.00;;;;;;;20.34;53.85;96693.56;5055341;28;20033;-65
2022/08/12 06:31:49;;;;;;;3.90;2.10;;;;;;;20.73;52.49;96681.53;5055430;28;20037;-65
2022/08/12 06:34:18;;;;;;;4.97;2.40;;;;;;;21.08;52.54;96686.66;5054248;28;20481;-65
2022/08/12 06:36:45;;;;;;;5.22;2.20;;;;;;;21.13;51.89;96689.69;5053587;28;20142;-64
2022/08/12 06:39:12;;;;;;;5.13;2.13;;;;;;;20.30;54.23;96681.72;5047915;28;20033;-65
2022/08/12 06:44:22;;;;;;;4.35;2.03;;;;;;;20.63;53.58;96674.22;5048481;28;20029;-64
2022/08/12 06:46:47;;;;;;;5.05;2.63;;;;;;;21.02;53.06;96682.84;5053533;28;20029;-65
2022/08/12 06:49:13;;;;;;;5.55;2.47;;;;;;;20.43;53.51;96683.38;5056706;28;20033;-65
2022/08/12 06:51:38;;;;;;;4.47;2.00;;;;;;;20.69;54.17;96694.75;5056600;28;20025;-65
2022/08/12 06:54:04;;;;;;;3.63;2.30;;;;;;;20.68;53.44;96681.28;5056362;28;20392;-63
2022/08/12 06:56:30;;;;;;;3.35;2.25;;;;;;;20.10;55.87;96684.56;5054382;28;20032;-64
2022/08/12 06:58:56;;;;;;;2.78;2.10;;;;;;;20.72;53.16;96681.97;5051596;28;20036;-64
2022/08/12 07:01:26;;;;;;;3.20;1.92;;;;;;;20.82;53.32;96683.72;5048582;28;20025;-63
2022/08/12 07:03:52;;;;;;;;;;;;;;;20.99;52.59;96687.25;5038282;28;20044;-66
2022/08/12 07:06:17;;;;;;;3.38;1.95;;;;;;;20.81;52.44;96680.16;5032287;28;19921;-65
2022/08/12 07:08:43;;;;;;;6.10;2.45;;;;;;;20.93;51.93;96678.66;5041720;28;20063;-65
2022/08/12 07:11:12;;;;;;;5.13;2.13;;;;;;;20.94;53.42;96688.59;5038452;28;20037;-64
2022/08/12 07:13:46;;;;;;;2.58;1.77;;;;;;;21.25;52.80;96692.97;5024946;28;20048;-67
2022/08/12 07:16:16;;;;;;;5.15;2.20;;;;;;;22.41;49.66;96686.56;5021901;28;20080;-63
2022/08/12 07:18:43;;;;;;;3.92;2.10;;;;;;;22.26;49.34;96685.41;5044936;28;20052;-65
2022/08/12 07:21:10;;;;;;;4.72;2.13;;;;;;;23.20;46.96;96681.25;5038986;28;20048;-65
2022/08/12 07:23:37;;;;;;;5.88;2.30;;;;;;;22.97;45.70;96681.59;5043600;28;20127;-65
2022/08/12 07:26:06;;;;;;;5.28;2.00;;;;;;;21.75;48.96;96680.50;5042590;28;20080;-61
2022/08/12 07:28:34;;;;;;;6.50;2.50;;;;;;;21.64;50.29;96682.81;5036700;28;20042;-66
2022/08/12 07:31:03;;;;;;;7.25;1.92;;;;;;;21.77;50.40;96678.84;5045727;28;20044;-65
2022/08/12 07:33:30;;;;;;;3.53;2.08;;;;;;;22.08;48.23;96683.94;5032351;28;20041;-64
2022/08/12 07:36:00;;;;;;;4.97;2.05;;;;;;;21.48;50.14;96673.28;5044351;28;20091;-65
2022/08/12 07:38:32;;;;;;;6.97;1.92;;;;;;;21.81;50.53;96681.53;5037616;28;20045;-65
2022/08/12 07:41:06;;;;;;;4.82;1.63;;;;;;;22.46;49.13;96682.44;5033738;28;20044;-67
2022/08/12 07:43:37;;;;;;;6.35;2.17;;;;;;;22.62;48.53;96675.97;5032998;28;20563;-66
2022/08/12 07:46:05;;;;;;;5.28;1.85;;;;;;;23.25;47.86;96685.50;5040144;28;20045;-64
2022/08/12 07:48:43;;;;;;;6.88;2.42;;;;;;;23.17;48.10;96673.75;5042410;28;20063;-65
2022/08/12 07:51:09;;;;;;;9.30;1.90;;;;;;;23.04;46.68;96670.19;5012539;28;20066;-66
2022/08/12 07:53:35;;;;;;;7.78;2.53;;;;;;;23.27;45.64;96680.22;5042869;28;20144;-66
2022/08/12 07:56:03;;;;;;;5.10;1.95;;;;;;;22.31;47.38;96679.31;5045157;28;20044;-65
2022/08/12 07:58:28;;;;;;;5.32;2.10;;;;;;;22.20;47.92;96679.59;5034121;28;20053;-66
2022/08/12 08:00:56;;;;;;;4.47;1.92;;;;;;;22.93;46.27;96680.94;5041349;28;20090;-65
2022/08/12 08:03:24;;;;;;;4.65;2.08;;;;;;;22.76;46.23;96680.28;5030696;28;20040;-65
2022/08/12 08:05:51;;;;;;;4.15;2.00;;;;;;;22.50;47.24;96688.69;5041308;28;20178;-65
2022/08/12 08:08:21;;;;;;;3.25;1.83;;;;;;;22.62;46.49;96679.53;5034381;28;20037;-65
2022/08/12 08:10:49;;;;;;;4.30;1.90;;;;;;;23.66;46.78;96681.63;5041853;28;20405;-64
2022/08/12 08:13:15;;;;;;;4.85;1.90;;;;;;;23.83;45.99;96681.47;5029216;28;20037;-64
2022/08/12 08:15:44;;;;;;;6.78;3.05;;;;;;;23.86;43.41;96680.56;5012353;28;20045;-64
2022/08/12 08:18:12;;;;;;;4.22;2.28;;;;;;;23.75;43.95;96680.94;5034462;28;20409;-65
2022/08/12 08:20:41;;;;;;;3.90;2.00;;;;;;;23.75;43.57;96678.13;5032291;28;20048;-67
2022/08/12 08:23:16;;;;;;;6.13;2.10;;;;;;;24.76;41.30;96677.16;5037443;28;20127;-66
2022/08/12 08:25:42;;;;;;;3.25;1.80;;;;;;;24.11;42.99;96676.03;5031990;28;20433;-66
2022/08/12 08:28:15;;;;;;;5.75;2.00;;;;;;;23.82;41.89;96680.69;5035900;28;20040;-64
2022/08/12 08:30:43;;;;;;;3.88;2.00;;;;;;;24.57;40.80;96685.47;5040095;28;20037;-65
2022/08/12 08:33:10;;;;;;;5.75;1.80;;;;;;;25.41;39.99;96680.06;5028192;28;20084;-65
2022/08/12 08:35:40;;;;;;;5.68;1.88;;;;;;;24.56;40.86;96685.91;5037481;28;20102;-65
2022/08/12 08:38:13;;;;;;;4.47;1.77;;;;;;;24.97;40.24;96681.88;5007930;28;20636;-65
2022/08/12 08:43:28;;;;;;;5.63;1.65;;;;;;;25.47;38.86;96689.44;5035331;28;20049;-66
2022/08/12 08:45:56;;;;;;;6.35;1.80;;;;;;;24.78;40.50;96685.88;5040218;28;20126;-67
2022/08/12 08:48:22;;;;;;;5.03;1.63;;;;;;;24.19;41.09;96691.31;5033769;28;20045;-67
2022/08/12 08:50:50;;;;;;;4.78;1.85;;;;;;;25.08;40.23;96675.03;5037251;28;20037;-66
2022/08/12 08:53:16;;;;;;;3.47;1.60;;;;;;;24.69;40.06;96677.44;5031162;28;20505;-66
2022/08/12 08:55:41;;;;;;;2.97;1.70;;;;;;;24.47;39.47;96666.25;5040745;28;20056;-65
2022/08/12 08:58:08;;;;;;;7.15;1.80;;;;;;;25.29;39.38;96671.34;5038048;28;20049;-66
2022/08/12 09:00:34;;;;;;;5.07;1.77;;;;;;;24.65;38.12;96671.19;5043021;28;20048;-66
2022/08/12 09:03:03;;;;;;;4.03;1.60;;;;;;;24.65;38.97;96671.19;5034621;28;20044;-65
2022/08/12 09:05:29;;;;;;;2.60;1.60;;;;;;;24.96;38.75;96668.31;5038627;28;20037;-66
2022/08/12 09:07:55;;;;;;;5.43;1.60;;;;;;;24.91;37.65;96664.09;5038091;28;20045;-67
2022/08/12 09:10:21;;;;;;;4.32;1.65;;;;;;;24.91;39.01;96671.72;5025787;28;20073;-65
2022/08/12 09:15:30;;;;;;;4.70;1.65;;;;;;;25.14;37.06;96665.53;5030142;28;20575;-65
2022/08/12 09:17:58;;;;;;;4.03;1.38;;;;;;;24.76;37.24;96646.34;5041457;28;20041;-66
2022/08/12 09:20:26;;;;;;;3.33;1.60;;;;;;;24.67;37.10;96665.88;5035125;28;20473;-67
2022/08/12 09:22:53;;;;;;;5.20;1.70;;;;;;;24.82;35.92;96680.13;5037819;28;20051;-67
2022/08/12 09:25:26;;;;;;;2.80;1.45;;;;;;;24.75;36.96;96665.16;5032454;28;20076;-65
2022/08/12 09:27:53;;;;;;;8.93;1.58;;;;;;;24.54;37.44;96669.59;5041068;28;20037;-67
2022/08/12 09:30:19;;;;;;;2.28;1.35;;;;;;;24.43;35.27;96666.41;5034379;28;20045;-67
2022/08/12 09:32:51;;;;;;;3.92;1.60;;;;;;;24.59;36.44;96654.22;5041771;28;20128;-66
2022/08/12 09:35:23;;;;;;;3.05;1.30;;;;;;;24.40;34.79;96661.75;5035591;28;20553;-66
2022/08/12 09:37:51;;;;;;;4.45;1.20;;;;;;;24.54;34.21;96654.81;5040573;28;20052;-67
2022/08/12 09:40:18;;;;;;;5.70;1.50;;;;;;;24.94;36.10;96645.59;5035272;28;20124;-67
2022/08/12 09:45:30;;;;;;;3.33;1.42;;;;;;;25.14;34.78;96640.31;5015514;28;20053;-66
2022/08/12 09:47:58;;;;;;;3.00;1.20;;;;;;;25.12;35.59;96647.63;5039487;28;20602;-67
2022/08/12 09:50:24;;;;;;;3.40;1.30;;;;;;;24.91;34.19;96649.31;5026614;28;20045;-65
2022/08/12 09:53:10;;;;;;;4.30;1.23;;;;;;;24.47;34.40;96653.06;5040610;28;20040;-65
2022/08/12 09:55:40;;;;;;;3.65;1.45;;;;;;;24.65;34.24;96655.19;5030424;28;20042;-66
2022/08/12 09:58:05;;;;;;;4.22;1.73;;;;;;;25.07;33.85;96645.47;5027416;28;20080;-66
2022/08/12 10:00:33;;;;;;;3.38;1.30;;;;;;;24.97;34.59;96644.66;5040335;28;20037;-66
2022/08/12 10:03:03;;;;;;;4.50;1.27;;;;;;;25.12;35.42;96642.81;5041325;28;20041;-66
2022/08/12 10:05:35;;;;;;;4.80;1.92;;;;;;;25.02;35.13;96640.47;5038251;28;20044;-66
2022/08/12 10:08:02;;;;;;;5.50;1.40;;;;;;;24.92;36.15;96648.88;5037883;28;20041;-66
2022/08/12 10:10:27;;;;;;;5.75;2.88;;;;;;;26.08;34.75;96633.44;5035559;28;20055;-65
2022/08/12 10:15:43;;;;;;;4.80;2.00;;;;;;;26.27;33.72;96637.75;5043012;28;20522;-66
2022/08/12 10:18:10;;;;;;;7.18;1.40;;;;;;;25.69;34.41;96636.75;5042465;28;20310;-65
2022/08/12 10:20:37;;;;;;;1.90;1.17;;;;;;;26.26;33.88;96630.56;5041351;28;20477;-65
2022/08/12 10:23:04;;;;;;;4.35;1.67;;;;;;;26.89;32.45;96624.34;5037273;28;20037;-65
2022/08/12 10:31:17;;;;;;;7.85;1.35;;;;;;;25.44;33.22;96625.88;4947166;28;20078;-65
2022/08/12 10:33:43;;;;;;;3.92;1.38;;;;;;;25.75;33.27;96622.91;5004545;28;20045;-65
2022/08/12 10:36:11;;;;;;;5.22;1.38;;;;;;;25.63;33.51;96621.81;5036757;28;20029;-66
2022/08/12 10:38:36;;;;;;;4.72;1.40;;;;;;;26.47;33.67;96623.16;5041028;28;20140;-66
2022/08/12 10:43:46;;;;;;;4.18;1.40;;;;;;;26.54;32.45;96612.81;5038960;28;20040;-66
2022/08/12 10:46:18;;;;;;;3.10;1.50;;;;;;;25.62;33.24;96620.25;5036338;28;20048;-67
2022/08/12 10:48:47;;;;;;;2.28;1.15;;;;;;;26.04;33.30;96613.19;5040719;28;20040;-66
2022/08/12 10:51:18;;;;;;;6.72;1.73;;;;;;;25.55;33.48;96617.75;5037435;28;20048;-65
2022/08/12 10:53:45;;;;;;;4.43;1.80;;;;;;;27.06;31.48;96611.44;5041235;28;20041;-66
2022/08/12 10:56:12;;;;;;;5.45;1.50;;;;;;;26.27;31.80;96608.88;5036073;28;20477;-66
2022/08/12 10:58:37;;;;;;;4.70;1.60;;;;;;;25.59;32.52;96614.78;5030085;28;20092;-65
2022/08/12 11:01:09;;;;;;;3.22;1.15;;;;;;;25.82;33.43;96616.97;5029531;28;20090;-65
2022/08/12 11:03:38;;;;;;;5.72;1.20;;;;;;;24.99;33.88;96603.75;5040537;28;20052;-65
2022/08/12 11:06:09;;;;;;;4.78;1.48;;;;;;;25.31;33.40;96618.41;5026925;28;20041;-65
2022/08/12 11:08:37;;;;;;;4.80;1.40;;;;;;;25.12;33.26;96622.41;5017122;28;20052;-66
2022/08/12 11:11:07;;;;;;;3.97;1.60;;;;;;;25.36;33.43;96614.19;5036136;28;20175;-67
2022/08/12 11:13:35;;;;;;;4.65;1.60;;;;;;;25.52;34.06;96608.28;5040015;28;20045;-64
2022/08/12 11:16:01;;;;;;;3.80;1.80;;;;;;;25.43;33.35;96607.50;5040498;28;20045;-65
2022/08/12 11:18:28;;;;;;;3.03;1.23;;;;;;;25.68;33.52;96612.00;5038447;28;20045;-66
2022/08/12 11:20:53;;;;;;;2.88;1.15;;;;;;;25.45;32.34;96613.44;5041144;28;20569;-66
2022/08/12 11:23:20;;;;;;;3.30;1.75;;;;;;;25.73;33.83;96597.31;5034966;28;20051;-66
2022/08/12 11:25:47;;;;;;;4.18;1.38;;;;;;;25.49;32.71;96606.41;5024738;28;21316;-67
2022/08/12 11:28:15;;;;;;;5.15;1.55;;;;;;;25.41;33.39;96607.97;5008939;28;20374;-65
2022/08/12 11:30:41;;;;;;;3.40;1.65;;;;;;;25.32;34.44;96605.94;5032617;28;20118;-64
2022/08/12 11:33:12;;;;;;;3.05;1.30;;;;;;;25.33;33.59;96595.50;5027276;28;20075;-67
2022/08/12 11:35:40;;;;;;;5.13;1.70;;;;;;;25.71;32.95;96597.00;5042779;28;20033;-64
2022/08/12 11:38:06;;;;;;;3.25;1.40;;;;;;;25.49;32.64;96600.00;5016001;28;20441;-66
2022/08/12 11:40:31;;;;;;;3.28;1.40;;;;;;;25.66;33.58;96586.44;5040628;28;20044;-66
2022/08/12 11:42:59;;;;;;;7.53;4.82;;;;;;;25.65;32.40;96582.84;5041537;28;20062;-65
2022/08/12 11:45:29;;;;;;;3.30;1.48;;;;;;;25.84;32.97;96583.59;5034823;28;20859;-66
2022/08/12 11:47:55;;;;;;;5.40;1.40;;;;;;;25.68;32.20;96581.91;5038908;28;20250;-66
2022/08/12 11:50:22;;;;;;;8.25;1.27;;;;;;;26.18;32.25;96575.25;5035951;28;20076;-67
2022/08/12 11:52:49;;;;;;;4.60;1.48;;;;;;;26.85;31.90;96573.19;5039982;28;20056;-66
2022/08/12 11:55:15;;;;;;;3.85;1.20;;;;;;;25.83;32.54;96575.66;5032562;28;20216;-67
2022/08/12 11:57:53;;;;;;;3.15;1.40;;;;;;;25.89;32.44;96570.94;5041119;28;20060;-67
2022/08/12 12:00:19;;;;;;;3.33;1.48;;;;;;;25.82;33.01;96574.09;5036793;28;20056;-66
2022/08/12 12:02:45;;;;;;;3.92;1.42;;;;;;;25.62;33.14;96580.97;5042021;28;20033;-68
2022/08/12 12:05:11;;;;;;;7.22;1.60;;;;;;;26.00;32.30;96576.09;5036661;28;20467;-66
2022/08/12 12:07:38;;;;;;;8.27;1.45;;;;;;;26.44;32.73;96575.59;5040467;28;20035;-67
2022/08/12 12:10:04;;;;;;;2.80;1.38;;;;;;;26.42;32.15;96573.25;5021481;28;20037;-67
2022/08/12 12:12:30;;;;;;;5.70;1.42;;;;;;;27.06;30.73;96576.91;5040483;28;20052;-67
2022/08/12 12:14:56;;;;;;;3.38;1.20;;;;;;;26.40;32.16;96563.75;5040361;28;20040;-66
2022/08/12 12:17:23;;;;;;;4.88;1.70;;;;;;;26.24;32.52;96564.94;5027390;28;20947;-66
2022/08/12 12:19:51;;;;;;;2.33;1.33;;;;;;;26.31;31.92;96568.16;5040420;28;20033;-67
2022/08/12 12:22:17;;;;;;;4.40;1.43;;;;;;;26.70;31.25;96564.69;5016756;28;20523;-67
2022/08/12 12:24:45;;;;;;;5.60;1.23;;;;;;;25.95;31.94;96557.88;5038083;28;20291;-67
2022/08/12 12:27:11;;;;;;;5.80;1.35;;;;;;;25.92;32.03;96553.94;5034519;28;20167;-65
2022/08/12 12:29:36;;;;;;;2.97;1.40;;;;;;;25.84;31.46;96557.56;5039492;28;20203;-67
2022/08/12 12:32:02;;;;;;;2.70;1.20;;;;;;;26.15;32.53;96557.31;5039104;28;20044;-67
2022/08/12 12:34:27;;;;;;;5.65;1.40;;;;;;;26.84;31.53;96563.97;5036577;28;20056;-67
2022/08/12 12:36:53;;;;;;;3.58;1.15;;;;;;;26.18;31.20;96539.53;5039983;28;20504;-65
2022/08/12 12:39:18;;;;;;;3.38;1.25;;;;;;;26.29;32.41;96555.88;5035832;28;20086;-68
2022/08/12 12:41:44;;;;;;;3.97;1.25;;;;;;;25.70;31.45;96545.75;5040456;28;20116;-66
2022/08/12 12:44:09;;;;;;;1.92;1.20;;;;;;;26.17;33.96;96560.44;5020457;28;20415;-68
2022/08/12 12:46:34;;;;;;;3.45;1.38;;;;;;;25.91;32.22;96560.03;5021834;28;20474;-66
2022/08/12 12:49:00;;;;;;;3.80;1.52;;;;;;;26.27;31.38;96542.31;5038963;28;20549;-66
2022/08/12 12:51:25;;;;;;;2.55;1.30;;;;;;;26.26;31.63;96540.75;5017827;28;20041;-67
2022/08/12 12:53:51;;;;;;;3.67;1.50;;;;;;;26.13;32.21;96543.75;5040782;28;20037;-67
2022/08/12 12:56:21;;;;;;;3.92;1.52;;;;;;;26.21;31.76;96549.03;5034753;28;20037;-65
2022/08/12 12:58:51;;;;;;;2.95;1.58;;;;;;;25.98;32.77;96548.50;5035539;28;20057;-67
2022/08/12 13:01:20;;;;;;;3.42;1.85;;;;;;;26.04;32.28;96545.84;5032935;28;20033;-65
2022/08/12 13:03:47;;;;;;;4.22;1.50;;;;;;;25.69;32.45;96546.22;5040544;28;20409;-67
2022/08/12 13:06:13;;;;;;;4.70;1.25;;;;;;;25.65;31.84;96542.81;5034269;28;20037;-66
2022/08/12 13:08:39;;;;;;;2.75;1.10;;;;;;;25.71;32.85;96536.09;5027580;28;20037;-66
2022/08/12 13:11:06;;;;;;;7.65;1.58;;;;;;;25.68;32.87;96547.50;5037091;28;20040;-66
2022/08/12 13:13:35;;;;;;;3.70;1.52;;;;;;;25.61;32.37;96545.03;5041615;28;20397;-67
2022/08/12 13:16:02;;;;;;;2.70;1.20;;;;;;;25.83;32.40;96545.56;5040950;28;20037;-67
2022/08/12 13:18:35;;;;;;;5.38;1.55;;;;;;;26.22;32.15;96540.13;5036129;28;20076;-66
2022/08/12 13:21:04;;;;;;;3.35;1.02;;;;;;;26.67;32.65;96548.81;5038429;28;20045;-67
2022/08/12 13:23:30;;;;;;;8.15;1.23;;;;;;;25.72;31.25;96537.66;5037657;28;20052;-67
2022/08/12 13:25:56;;;;;;;2.17;1.10;;;;;;;25.75;32.12;96533.91;5039831;28;20052;-66
2022/08/12 13:28:24;;;;;;;4.15;1.25;;;;;;;25.94;31.23;96536.66;5033313;28;20519;-67